Time;durP1;ratioP1;P1;durP2;ratioP2;P2;SDS_P1;SDS_P2;PMS_P1;PMS_P2;Temp;Humidity;BMP_temperature;BMP_pressure;BME280_temperature;BME280_humidity;BME280_pressure;Samples;Min_cycle;Max_cycle;Signal;HPM_P1;HPM_P2
2021/10/07 00:01:29;;;;;;;0.40;0.20;;;11.60;99.90;;;;;;5074588;28;20506;-60
2021/10/07 00:04:06;;;;;;;0.50;0.30;;;11.50;99.90;;;;;;5074596;28;20858;-61
2021/10/07 00:06:37;;;;;;;0.90;0.30;;;11.40;99.90;;;;;;5074772;28;20426;-60
2021/10/07 00:09:06;;;;;;;0.80;0.23;;;11.30;99.90;;;;;;5056506;28;20789;-61
2021/10/07 00:11:39;;;;;;;1.10;0.30;;;11.40;99.90;;;;;;5074292;28;20871;-60
2021/10/07 00:14:07;;;;;;;0.50;0.30;;;11.60;99.90;;;;;;5074427;28;20786;-61
2021/10/07 00:16:45;;;;;;;0.70;0.30;;;11.90;99.90;;;;;;5073582;28;20420;-61
2021/10/07 00:19:18;;;;;;;0.50;0.30;;;12.00;99.90;;;;;;5074144;28;20845;-61
2021/10/07 00:21:45;;;;;;;0.50;0.30;;;11.90;99.90;;;;;;5073422;28;20411;-60
2021/10/07 00:24:15;;;;;;;0.57;0.20;;;11.90;99.90;;;;;;5073482;28;20423;-61
2021/10/07 00:26:45;;;;;;;0.50;0.20;;;11.90;99.90;;;;;;5073180;28;20412;-60
2021/10/07 00:29:34;;;;;;;0.50;0.30;;;11.90;99.90;;;;;;5073450;28;20738;-61
2021/10/07 00:32:08;;;;;;;0.90;0.30;;;11.70;99.90;;;;;;5074088;28;20439;-60
2021/10/07 00:34:54;;;;;;;0.80;0.30;;;11.50;99.90;;;;;;5074600;28;20770;-60
2021/10/07 00:39:02;;;;;;;1.00;0.30;;;11.40;99.90;;;;;;5074670;28;20522;-60
2021/10/07 00:40:16;;;;;;;0.50;0.20;;;11.40;99.90;;;;;;5074515;28;20525;-60
2021/10/07 00:42:45;;;;;;;0.50;0.30;;;11.30;99.90;;;;;;5075022;28;20427;-60
2021/10/07 00:45:13;;;;;;;0.40;0.30;;;11.50;99.90;;;;;;5075535;28;20507;-60
2021/10/07 00:47:43;;;;;;;0.50;0.30;;;11.50;99.90;;;;;;5073512;28;20435;-60
2021/10/07 00:50:13;;;;;;;0.40;0.30;;;11.50;99.90;;;;;;5073995;28;20907;-61
2021/10/07 00:52:40;;;;;;;1.17;0.20;;;11.70;99.90;;;;;;5073560;28;20427;-60
2021/10/07 00:55:11;;;;;;;0.40;0.20;;;11.80;99.90;;;;;;5073462;28;20423;-60
2021/10/07 00:57:39;;;;;;;0.43;0.20;;;12.00;99.90;;;;;;5072897;28;20427;-61
2021/10/07 01:00:12;;;;;;;0.40;0.30;;;12.50;99.90;;;;;;5072505;28;20423;-61
2021/10/07 01:02:39;;;;;;;0.50;0.20;;;12.70;99.90;;;;;;5073341;28;20505;-60
2021/10/07 01:05:11;;;;;;;0.40;0.27;;;12.60;99.90;;;;;;5073064;28;20420;-61
2021/10/07 01:07:39;;;;;;;0.60;0.20;;;12.50;99.90;;;;;;5074251;28;20739;-61
2021/10/07 01:10:07;;;;;;;0.35;0.20;;;12.30;99.90;;;;;;5075134;28;20696;-60
2021/10/07 01:12:35;;;;;;;0.50;0.30;;;12.20;99.90;;;;;;5076622;28;20435;-61
2021/10/07 01:15:05;;;;;;;0.70;0.28;;;12.20;99.90;;;;;;5078692;28;20451;-61
2021/10/07 01:17:33;;;;;;;1.00;0.30;;;12.10;99.90;;;;;;5077933;28;20729;-60
2021/10/07 01:20:06;;;;;;;0.50;0.30;;;11.90;99.90;;;;;;5078485;28;20503;-60
2021/10/07 01:22:33;;;;;;;0.60;0.30;;;11.80;99.90;;;;;;5076624;28;20751;-60
2021/10/07 01:25:02;;;;;;;0.70;0.30;;;11.70;99.90;;;;;;5075306;28;20724;-61
2021/10/07 01:27:31;;;;;;;1.00;0.20;;;11.70;99.90;;;;;;5076633;28;20434;-61
2021/10/07 01:30:01;;;;;;;0.50;0.30;;;11.60;99.90;;;;;;5076720;28;20444;-60
2021/10/07 01:32:28;;;;;;;1.10;0.30;;;11.70;99.90;;;;;;5076865;28;20944;-60
2021/10/07 01:34:55;;;;;;;0.40;0.20;;;11.60;99.90;;;;;;5076957;28;20715;-61
2021/10/07 01:37:24;;;;;;;0.40;0.20;;;12.10;99.90;;;;;;5076410;28;20430;-61
2021/10/07 01:39:51;;;;;;;0.50;0.30;;;12.40;99.90;;;;;;5077805;28;20830;-60
2021/10/07 01:42:18;;;;;;;0.50;0.30;;;12.40;99.90;;;;;;5076027;28;20624;-61
2021/10/07 01:44:45;;;;;;;0.67;0.30;;;12.30;99.90;;;;;;5074780;28;20730;-60
2021/10/07 01:47:13;;;;;;;0.40;0.20;;;12.20;99.90;;;;;;5074309;28;20449;-61
2021/10/07 01:49:40;;;;;;;0.60;0.30;;;12.10;99.90;;;;;;5075629;28;20411;-61
2021/10/07 01:52:08;;;;;;;0.40;0.30;;;12.20;99.90;;;;;;5075611;28;20847;-60
2021/10/07 01:54:36;;;;;;;0.50;0.30;;;12.20;99.90;;;;;;5076104;28;20426;-61
2021/10/07 01:57:04;;;;;;;1.40;0.20;;;12.50;99.90;;;;;;5076499;28;20427;-61
2021/10/07 01:59:31;;;;;;;0.55;0.30;;;12.50;99.90;;;;;;5077649;28;20506;-61
2021/10/07 02:01:58;;;;;;;0.40;0.30;;;12.30;99.90;;;;;;5077422;28;20723;-60
2021/10/07 02:04:25;;;;;;;0.70;0.30;;;12.20;99.90;;;;;;5077397;28;20412;-61
2021/10/07 02:06:53;;;;;;;0.70;0.30;;;12.20;99.90;;;;;;5077345;28;20434;-61
2021/10/07 02:09:24;;;;;;;0.60;0.30;;;12.10;99.90;;;;;;5077520;28;20416;-61
2021/10/07 02:11:53;;;;;;;0.60;0.30;;;12.10;99.90;;;;;;5077194;28;20475;-60
2021/10/07 02:14:20;;;;;;;2.80;0.30;;;12.00;99.90;;;;;;5077221;28;20423;-61
2021/10/07 02:16:47;;;;;;;0.80;0.30;;;11.90;99.90;;;;;;5077227;28;20427;-61
2021/10/07 02:19:14;;;;;;;0.70;0.30;;;11.90;99.90;;;;;;5077273;28;20434;-63
2021/10/07 02:21:41;;;;;;;0.40;0.22;;;11.60;99.90;;;;;;5077210;28;20412;-60
2021/10/07 02:24:09;;;;;;;0.60;0.23;;;11.50;99.90;;;;;;5076572;28;20722;-60
2021/10/07 02:26:36;;;;;;;0.63;0.30;;;11.50;99.90;;;;;;5077193;28;20430;-60
2021/10/07 02:29:05;;;;;;;0.40;0.30;;;11.50;99.90;;;;;;5076869;28;20888;-60
2021/10/07 02:31:33;;;;;;;0.90;0.30;;;11.40;99.90;;;;;;5077161;28;20439;-60
2021/10/07 02:34:00;;;;;;;0.68;0.30;;;11.40;99.90;;;;;;5077287;28;20677;-61
2021/10/07 02:36:28;;;;;;;0.47;0.30;;;11.30;99.90;;;;;;5077239;28;20841;-61
2021/10/07 02:38:55;;;;;;;1.20;0.30;;;11.30;99.90;;;;;;5077102;28;20423;-61
2021/10/07 02:41:22;;;;;;;0.47;0.30;;;11.90;99.90;;;;;;5076535;28;20884;-61
2021/10/07 02:43:49;;;;;;;0.40;0.30;;;12.00;99.90;;;;;;5077183;28;20724;-61
2021/10/07 02:46:18;;;;;;;0.50;0.30;;;12.00;99.90;;;;;;5074286;28;20511;-60
2021/10/07 02:48:45;;;;;;;0.40;0.20;;;11.80;99.90;;;;;;5074120;28;20428;-61
2021/10/07 02:51:13;;;;;;;1.67;0.30;;;11.70;99.90;;;;;;5074487;28;20864;-61
2021/10/07 02:53:40;;;;;;;0.63;0.30;;;11.60;99.90;;;;;;5073318;28;20525;-61
2021/10/07 02:56:07;;;;;;;0.40;0.20;;;11.60;99.90;;;;;;5074556;28;20715;-61
2021/10/07 02:58:36;;;;;;;0.80;0.30;;;11.90;99.90;;;;;;5074238;28;20438;-60
2021/10/07 03:01:03;;;;;;;0.75;0.30;;;11.90;99.90;;;;;;5075649;28;20906;-61
2021/10/07 03:03:32;;;;;;;0.60;0.20;;;11.90;99.90;;;;;;5076805;28;20808;-61
2021/10/07 03:05:59;;;;;;;0.50;0.28;;;12.10;99.90;;;;;;5075890;28;20714;-61
2021/10/07 03:08:28;;;;;;;0.50;0.22;;;12.20;99.90;;;;;;5076158;28;20461;-61
2021/10/07 03:10:55;;;;;;;0.50;0.30;;;12.60;99.90;;;;;;5076287;28;20427;-61
2021/10/07 03:13:23;;;;;;;0.70;0.30;;;12.80;99.90;;;;;;5076029;28;20428;-61
2021/10/07 03:15:50;;;;;;;0.60;0.30;;;12.80;99.90;;;;;;5076228;28;20431;-61
2021/10/07 03:18:18;;;;;;;0.40;0.30;;;12.50;99.90;;;;;;5076181;28;20428;-61
2021/10/07 03:20:46;;;;;;;0.40;0.30;;;12.30;99.90;;;;;;5076101;28;20841;-61
2021/10/07 03:23:14;;;;;;;0.60;0.30;;;12.10;99.90;;;;;;5075507;28;20518;-61
2021/10/07 03:25:41;;;;;;;0.43;0.30;;;12.00;99.90;;;;;;5075881;28;20724;-61
2021/10/07 03:28:08;;;;;;;0.40;0.30;;;12.00;99.90;;;;;;5076491;28;20457;-61
2021/10/07 03:30:36;;;;;;;0.50;0.20;;;12.00;99.90;;;;;;5075796;28;20722;-61
2021/10/07 03:33:07;;;;;;;0.60;0.30;;;12.00;99.90;;;;;;5076013;28;20435;-60
2021/10/07 03:35:35;;;;;;;1.00;0.30;;;12.10;99.90;;;;;;5076159;28;20430;-61
2021/10/07 03:38:04;;;;;;;0.55;0.20;;;12.20;99.90;;;;;;5075991;28;20431;-61
2021/10/07 03:40:32;;;;;;;0.40;0.30;;;12.30;99.90;;;;;;5074542;28;20523;-61
2021/10/07 03:43:00;;;;;;;0.60;0.20;;;12.30;99.90;;;;;;5073197;28;20474;-61
2021/10/07 03:45:28;;;;;;;0.50;0.20;;;12.20;99.90;;;;;;5073045;28;20804;-61
2021/10/07 03:47:55;;;;;;;0.50;0.20;;;12.40;99.90;;;;;;5072520;28;20521;-61
2021/10/07 03:50:22;;;;;;;0.50;0.30;;;12.60;99.90;;;;;;5072012;28;20969;-61
2021/10/07 03:52:49;;;;;;;0.40;0.20;;;12.70;99.90;;;;;;5071678;28;20435;-60
2021/10/07 03:55:18;;;;;;;0.60;0.30;;;12.80;99.90;;;;;;5071841;28;20437;-61
2021/10/07 03:57:45;;;;;;;0.90;0.30;;;12.70;99.90;;;;;;5072451;28;20432;-60
2021/10/07 04:00:13;;;;;;;0.50;0.20;;;12.50;99.90;;;;;;5072073;28;20426;-60
2021/10/07 04:02:40;;;;;;;0.88;0.30;;;12.10;99.90;;;;;;5072014;28;20428;-61
2021/10/07 04:05:09;;;;;;;0.50;0.30;;;12.10;99.90;;;;;;5072559;28;20815;-61
2021/10/07 04:07:36;;;;;;;0.40;0.30;;;12.20;99.90;;;;;;5071770;28;20609;-61
2021/10/07 04:10:04;;;;;;;0.70;0.30;;;12.20;99.90;;;;;;5070610;28;20483;-62
2021/10/07 04:12:33;;;;;;;1.10;0.30;;;12.20;99.90;;;;;;5071217;28;20435;-61
2021/10/07 04:15:00;;;;;;;0.50;0.30;;;12.00;99.90;;;;;;5072946;28;20408;-61
2021/10/07 04:17:27;;;;;;;0.70;0.40;;;11.90;99.90;;;;;;5073077;28;20525;-61
2021/10/07 04:19:54;;;;;;;0.60;0.30;;;11.80;99.90;;;;;;5073238;28;20556;-62
2021/10/07 04:22:22;;;;;;;0.57;0.30;;;11.80;99.90;;;;;;5073634;28;20702;-61
2021/10/07 04:24:49;;;;;;;0.50;0.30;;;11.60;99.90;;;;;;5075227;28;20712;-61
2021/10/07 04:27:16;;;;;;;0.50;0.30;;;11.70;99.90;;;;;;5074021;28;20445;-61
2021/10/07 04:29:45;;;;;;;0.40;0.30;;;11.80;99.90;;;;;;5074863;28;20427;-61
2021/10/07 04:32:12;;;;;;;1.30;0.30;;;11.80;99.90;;;;;;5074657;28;20795;-61
2021/10/07 04:34:40;;;;;;;0.68;0.30;;;11.80;99.90;;;;;;5073984;28;20510;-61
2021/10/07 04:37:07;;;;;;;0.57;0.30;;;11.80;99.90;;;;;;5073063;28;20992;-61
2021/10/07 04:39:34;;;;;;;0.97;0.30;;;11.80;99.90;;;;;;5071818;28;20731;-62
2021/10/07 04:42:02;;;;;;;0.40;0.30;;;11.90;99.90;;;;;;5072673;28;20432;-61
2021/10/07 04:44:29;;;;;;;0.63;0.30;;;11.90;99.90;;;;;;5071681;28;20892;-61
2021/10/07 04:46:57;;;;;;;0.50;0.30;;;12.20;99.90;;;;;;5070082;28;20453;-61
2021/10/07 04:49:25;;;;;;;0.60;0.30;;;12.30;99.90;;;;;;5072482;28;20684;-61
2021/10/07 04:51:52;;;;;;;0.50;0.20;;;12.60;99.90;;;;;;5071172;28;20847;-61
2021/10/07 04:54:19;;;;;;;0.40;0.20;;;12.80;99.90;;;;;;5071528;28;21007;-61
2021/10/07 04:56:46;;;;;;;0.90;0.30;;;13.00;99.90;;;;;;5072385;28;20522;-61
2021/10/07 04:59:13;;;;;;;0.50;0.20;;;13.20;99.90;;;;;;5071112;28;20774;-61
2021/10/07 05:01:40;;;;;;;0.40;0.30;;;13.40;99.90;;;;;;5071442;28;20423;-61
2021/10/07 05:04:09;;;;;;;0.45;0.30;;;13.50;99.90;;;;;;5072788;28;20422;-61
2021/10/07 05:06:36;;;;;;;0.40;0.27;;;13.50;99.90;;;;;;5072048;28;20416;-60
2021/10/07 05:09:03;;;;;;;0.70;0.30;;;13.40;99.90;;;;;;5074172;28;20419;-61
2021/10/07 05:11:31;;;;;;;0.70;0.30;;;13.00;99.90;;;;;;5073966;28;20415;-60
2021/10/07 05:13:58;;;;;;;0.50;0.30;;;13.00;99.90;;;;;;5071937;28;20476;-61
2021/10/07 05:16:25;;;;;;;0.50;0.30;;;13.00;99.90;;;;;;5070556;28;20430;-61
2021/10/07 05:18:52;;;;;;;0.43;0.30;;;13.00;99.90;;;;;;5069885;28;20423;-62
2021/10/07 05:21:21;;;;;;;0.70;0.30;;;12.90;99.90;;;;;;5071910;28;20463;-61
2021/10/07 05:23:48;;;;;;;0.60;0.32;;;13.00;99.90;;;;;;5071592;28;20800;-61
2021/10/07 05:26:16;;;;;;;0.90;0.30;;;13.10;99.90;;;;;;5070276;28;20746;-60
2021/10/07 05:28:44;;;;;;;1.00;0.28;;;13.10;99.90;;;;;;5071574;28;20496;-61
2021/10/07 05:31:11;;;;;;;0.60;0.30;;;13.10;99.90;;;;;;5070547;28;20416;-60
2021/10/07 05:33:39;;;;;;;0.50;0.30;;;13.30;99.90;;;;;;5069711;28;20805;-60
2021/10/07 05:36:06;;;;;;;0.60;0.30;;;13.30;99.90;;;;;;5071729;28;20439;-60
2021/10/07 05:38:35;;;;;;;0.80;0.30;;;13.30;99.90;;;;;;5071003;28;20423;-61
2021/10/07 05:41:02;;;;;;;0.80;0.40;;;13.30;99.90;;;;;;5071191;28;20548;-61
2021/10/07 05:43:29;;;;;;;0.60;0.40;;;13.20;99.90;;;;;;5070276;28;20423;-61
2021/10/07 05:45:56;;;;;;;0.68;0.40;;;12.90;99.90;;;;;;5070834;28;20411;-61
2021/10/07 05:48:24;;;;;;;0.60;0.30;;;12.70;99.90;;;;;;5071182;28;20445;-61
2021/10/07 05:50:51;;;;;;;0.60;0.30;;;12.70;99.90;;;;;;5071748;28;20514;-61
2021/10/07 05:53:18;;;;;;;0.50;0.30;;;12.70;99.90;;;;;;5070083;28;20539;-61
2021/10/07 05:55:47;;;;;;;1.30;0.40;;;12.50;99.90;;;;;;5068329;28;20412;-61
2021/10/07 05:58:15;;;;;;;1.50;0.40;;;12.40;99.90;;;;;;5065960;28;20462;-61
2021/10/07 06:00:42;;;;;;;1.17;0.30;;;12.20;99.90;;;;;;5070064;28;20639;-61
2021/10/07 06:03:10;;;;;;;1.07;0.30;;;12.30;99.90;;;;;;5069572;28;20430;-61
2021/10/07 06:05:37;;;;;;;0.70;0.40;;;12.80;99.90;;;;;;5071630;28;20424;-61
2021/10/07 06:08:05;;;;;;;1.30;0.40;;;12.90;99.90;;;;;;5071947;28;20534;-61
2021/10/07 06:10:33;;;;;;;0.57;0.40;;;12.70;99.90;;;;;;5072991;28;20524;-61
2021/10/07 06:13:01;;;;;;;2.10;0.40;;;12.70;99.90;;;;;;5074003;28;20739;-61
2021/10/07 06:15:29;;;;;;;0.50;0.30;;;12.70;99.90;;;;;;5073348;28;20504;-61
2021/10/07 06:17:57;;;;;;;1.35;0.40;;;12.80;99.90;;;;;;5071529;28;20826;-60
2021/10/07 06:20:30;;;;;;;1.30;0.50;;;13.00;99.90;;;;;;5072468;28;20424;-60
2021/10/07 06:22:58;;;;;;;0.60;0.40;;;13.20;99.90;;;;;;5072239;28;20443;-60
2021/10/07 06:25:26;;;;;;;1.08;0.70;;;13.30;99.90;;;;;;5072002;28;20419;-60
2021/10/07 06:27:54;;;;;;;1.20;0.80;;;13.40;99.90;;;;;;5073120;28;20917;-62
2021/10/07 06:30:29;;;;;;;1.40;0.50;;;13.40;99.90;;;;;;5070224;28;20412;-60
2021/10/07 06:32:58;;;;;;;1.60;0.40;;;13.60;99.90;;;;;;5071723;28;20734;-60
2021/10/07 06:35:25;;;;;;;1.40;0.40;;;13.90;99.90;;;;;;5071774;28;20426;-60
2021/10/07 06:37:53;;;;;;;2.17;0.30;;;14.10;99.90;;;;;;5072734;28;20438;-60
2021/10/07 06:40:21;;;;;;;1.05;0.40;;;14.30;99.90;;;;;;5073199;28;20467;-61
2021/10/07 06:42:48;;;;;;;1.00;0.40;;;14.40;99.90;;;;;;5072953;28;20510;-61
2021/10/07 06:45:16;;;;;;;0.50;0.30;;;14.50;99.90;;;;;;5073219;28;20477;-61
2021/10/07 06:47:45;;;;;;;0.55;0.40;;;14.60;99.90;;;;;;5072751;28;20716;-61
2021/10/07 06:50:17;;;;;;;0.70;0.40;;;14.50;99.90;;;;;;5072144;28;20554;-61
2021/10/07 06:52:44;;;;;;;0.70;0.40;;;14.40;99.90;;;;;;5071363;28;20541;-61
2021/10/07 06:55:13;;;;;;;1.02;0.40;;;13.90;99.90;;;;;;5071138;28;20415;-61
2021/10/07 06:57:41;;;;;;;1.00;0.47;;;13.70;99.90;;;;;;5072230;28;20741;-61
2021/10/07 07:00:11;;;;;;;0.70;0.50;;;14.10;99.90;;;;;;5071341;28;20423;-59
2021/10/07 07:02:38;;;;;;;1.40;0.45;;;13.80;99.90;;;;;;5070560;28;20714;-59
2021/10/07 07:05:14;;;;;;;1.40;0.30;;;13.90;99.90;;;;;;5071592;28;20476;-59
2021/10/07 07:07:43;;;;;;;1.10;0.50;;;14.20;99.90;;;;;;5071775;28;20428;-59
2021/10/07 07:10:18;;;;;;;0.60;0.40;;;14.20;99.90;;;;;;5071951;28;20438;-59
2021/10/07 07:12:53;;;;;;;1.10;0.50;;;13.90;99.90;;;;;;5072009;28;20449;-59
2021/10/07 07:15:25;;;;;;;0.80;0.40;;;14.00;99.90;;;;;;5069781;28;20591;-59
2021/10/07 07:17:53;;;;;;;1.23;0.50;;;13.90;99.90;;;;;;5080124;28;20455;-60
2021/10/07 07:20:28;;;;;;;0.65;0.40;;;14.00;99.90;;;;;;5091856;28;20504;-58
2021/10/07 07:22:55;;;;;;;1.70;0.40;;;13.90;99.90;;;;;;5092494;28;20758;-58
2021/10/07 07:25:28;;;;;;;1.30;0.50;;;13.90;99.90;;;;;;5092635;28;20479;-59
2021/10/07 07:27:55;;;;;;;0.80;0.50;;;14.10;99.90;;;;;;5093112;28;20422;-59
2021/10/07 07:30:22;;;;;;;0.65;0.40;;;13.90;99.90;;;;;;5092866;28;20450;-59
2021/10/07 07:32:50;;;;;;;0.90;0.67;;;14.10;99.90;;;;;;5092395;28;20499;-60
2021/10/07 07:35:22;;;;;;;1.10;0.50;;;14.30;99.90;;;;;;5093036;28;20414;-59
2021/10/07 07:37:49;;;;;;;0.90;0.40;;;13.90;99.90;;;;;;5093232;28;20519;-59
2021/10/07 07:40:17;;;;;;;0.60;0.40;;;14.10;99.90;;;;;;5092281;28;20732;-59
2021/10/07 07:42:44;;;;;;;0.60;0.40;;;14.40;99.90;;;;;;5089469;28;20790;-60
2021/10/07 07:45:12;;;;;;;1.20;0.50;;;14.60;99.90;;;;;;5090445;28;20914;-59
2021/10/07 07:47:44;;;;;;;1.20;0.50;;;14.70;99.90;;;;;;5091037;28;21001;-59
2021/10/07 07:50:12;;;;;;;1.70;0.90;;;14.60;99.90;;;;;;5091640;28;20410;-58
2021/10/07 07:52:43;;;;;;;2.35;0.70;;;14.30;99.90;;;;;;5089574;28;20899;-59
2021/10/07 07:55:14;;;;;;;0.70;0.50;;;14.50;99.90;;;;;;5089545;28;20910;-59
2021/10/07 07:57:42;;;;;;;1.70;0.60;;;14.70;99.90;;;;;;5085875;28;20722;-58
2021/10/07 08:00:27;;;;;;;0.93;0.50;;;14.70;99.90;;;;;;5072811;28;20431;-58
2021/10/07 08:02:58;;;;;;;1.17;0.50;;;14.50;99.90;;;;;;5070699;28;20423;-57
2021/10/07 08:05:33;;;;;;;1.00;0.70;;;14.40;99.90;;;;;;5069843;28;20502;-57
2021/10/07 08:08:06;;;;;;;0.90;0.60;;;14.30;99.90;;;;;;5071377;28;20530;-57
2021/10/07 08:10:49;;;;;;;1.35;0.80;;;14.50;99.90;;;;;;5073058;28;20454;-58
2021/10/07 08:13:29;;;;;;;2.13;0.80;;;14.20;99.90;;;;;;5073407;28;20450;-57
2021/10/07 08:16:10;;;;;;;0.90;0.70;;;14.00;99.90;;;;;;5071032;28;20420;-57
2021/10/07 08:18:43;;;;;;;2.35;0.80;;;14.10;99.90;;;;;;5071691;28;20434;-57
2021/10/07 08:21:12;;;;;;;1.20;0.80;;;14.20;99.90;;;;;;5071236;28;20862;-57
2021/10/07 08:23:48;;;;;;;1.40;0.70;;;14.10;99.90;;;;;;5071415;28;20430;-57
2021/10/07 08:26:20;;;;;;;1.85;0.70;;;14.30;99.90;;;;;;5071718;28;20616;-57
2021/10/07 08:28:48;;;;;;;0.80;0.60;;;14.60;99.90;;;;;;5072170;28;20423;-56
2021/10/07 08:31:19;;;;;;;0.93;0.70;;;14.80;99.90;;;;;;5071437;28;20412;-57
2021/10/07 08:33:46;;;;;;;2.97;0.70;;;14.90;99.90;;;;;;5070223;28;20530;-57
2021/10/07 08:36:14;;;;;;;1.40;0.70;;;15.20;99.90;;;;;;5071149;28;20459;-56
2021/10/07 08:38:43;;;;;;;1.40;0.80;;;15.20;99.90;;;;;;5071828;28;20432;-55
2021/10/07 08:41:10;;;;;;;1.83;0.80;;;15.00;99.90;;;;;;5071369;28;20431;-56
2021/10/07 08:43:43;;;;;;;1.00;0.70;;;14.80;99.90;;;;;;5068649;28;20756;-58
2021/10/07 08:46:13;;;;;;;1.13;0.80;;;15.00;99.90;;;;;;5067573;28;20451;-57
2021/10/07 08:48:42;;;;;;;1.73;0.85;;;15.30;99.90;;;;;;5069866;28;20431;-59
2021/10/07 08:51:11;;;;;;;1.08;0.70;;;15.30;99.90;;;;;;5070093;28;20442;-57
2021/10/07 08:53:39;;;;;;;0.80;0.60;;;15.20;99.90;;;;;;5069157;28;20435;-57
2021/10/07 08:56:08;;;;;;;1.20;0.70;;;15.30;99.90;;;;;;5069300;28;20659;-57
2021/10/07 08:58:36;;;;;;;1.15;0.80;;;15.30;99.90;;;;;;5069734;28;20781;-58
2021/10/07 09:01:08;;;;;;;1.80;0.70;;;15.40;99.90;;;;;;5069937;28;20430;-58
2021/10/07 09:03:47;;;;;;;2.35;0.82;;;15.50;99.90;;;;;;5068753;28;20628;-56
2021/10/07 09:06:39;;;;;;;1.10;0.70;;;15.10;99.90;;;;;;5068852;28;20483;-57
2021/10/07 09:09:07;;;;;;;3.00;0.80;;;15.40;99.90;;;;;;5069002;28;20719;-49
2021/10/07 09:11:54;;;;;;;1.60;0.80;;;15.70;99.90;;;;;;5069506;28;20430;-53
2021/10/07 09:14:32;;;;;;;1.83;0.70;;;15.50;99.90;;;;;;5068904;28;21066;-52
2021/10/07 09:17:07;;;;;;;1.30;0.80;;;15.50;99.90;;;;;;5067383;28;20427;-53
2021/10/07 09:19:43;;;;;;;2.40;0.70;;;15.60;99.90;;;;;;5069358;28;20467;-53
2021/10/07 09:22:19;;;;;;;2.20;0.90;;;15.70;99.90;;;;;;5068373;28;20415;-55
2021/10/07 09:24:54;;;;;;;1.27;0.77;;;15.80;99.90;;;;;;5069703;28;20424;-52
2021/10/07 09:27:30;;;;;;;1.97;0.90;;;15.50;99.90;;;;;;5080192;28;20422;-55
2021/10/07 09:30:09;;;;;;;1.73;0.90;;;15.20;99.90;;;;;;5081056;28;20433;-49
2021/10/07 09:32:44;;;;;;;0.98;0.80;;;15.10;99.90;;;;;;5091398;28;20427;-54
2021/10/07 09:35:18;;;;;;;1.40;0.70;;;15.00;99.90;;;;;;5094976;28;20473;-53
2021/10/07 09:37:47;;;;;;;1.80;0.80;;;15.20;99.90;;;;;;5093958;28;20852;-52
2021/10/07 09:40:26;;;;;;;1.60;1.00;;;15.40;99.90;;;;;;5090537;28;20441;-51
2021/10/07 09:42:59;;;;;;;2.00;1.10;;;15.00;99.90;;;;;;5093446;28;20430;-52
2021/10/07 09:45:42;;;;;;;2.80;1.50;;;14.70;99.90;;;;;;5094415;28;20678;-53
2021/10/07 09:48:10;;;;;;;2.00;1.10;;;14.60;99.90;;;;;;5094568;28;20429;-51
2021/10/07 09:50:39;;;;;;;3.30;1.13;;;14.70;99.90;;;;;;5092703;28;20495;-51
2021/10/07 09:53:12;;;;;;;1.63;1.10;;;15.00;99.90;;;;;;5083402;28;20431;-50
2021/10/07 09:55:48;;;;;;;1.97;1.17;;;15.10;99.90;;;;;;5083538;28;20718;-50
2021/10/07 09:58:22;;;;;;;2.28;1.20;;;15.20;99.90;;;;;;5089198;28;20418;-51
2021/10/07 10:00:58;;;;;;;1.60;1.30;;;15.40;99.90;;;;;;5091238;28;20757;-53
2021/10/07 10:03:26;;;;;;;2.30;1.10;;;15.30;99.90;;;;;;5091633;28;20475;-51
2021/10/07 10:06:03;;;;;;;1.60;1.00;;;15.30;99.90;;;;;;5091261;28;20645;-49
2021/10/07 10:08:36;;;;;;;3.20;1.33;;;15.60;99.90;;;;;;5090108;28;20760;-52
2021/10/07 10:11:05;;;;;;;1.17;0.90;;;15.50;99.90;;;;;;5091442;28;20640;-53
2021/10/07 10:13:56;;;;;;;2.90;1.17;;;15.80;99.90;;;;;;5093279;28;20853;-51
2021/10/07 10:16:25;;;;;;;1.88;1.55;;;15.90;99.90;;;;;;5092664;28;20421;-52
2021/10/07 10:19:02;;;;;;;1.23;1.00;;;15.90;99.90;;;;;;5090599;28;20425;-53
2021/10/07 10:21:41;;;;;;;1.40;0.90;;;15.70;99.90;;;;;;5091811;28;20783;-51
2021/10/07 10:24:13;;;;;;;2.90;1.20;;;15.80;99.90;;;;;;5095099;28;20760;-52
2021/10/07 10:26:58;;;;;;;3.20;1.30;;;16.00;99.90;;;;;;5091298;28;20417;-51
2021/10/07 10:29:41;;;;;;;3.38;1.20;;;16.10;99.90;;;;;;5070109;28;20435;-54
2021/10/07 10:32:12;;;;;;;1.70;1.00;;;16.10;99.90;;;;;;5068634;28;20423;-55
2021/10/07 10:34:48;;;;;;;2.10;1.00;;;16.20;99.90;;;;;;5063825;28;20594;-55
2021/10/07 10:37:24;;;;;;;1.70;1.10;;;16.00;99.90;;;;;;5066837;28;20415;-52
2021/10/07 10:39:56;;;;;;;1.60;1.10;;;15.70;99.90;;;;;;5065881;28;20846;-55
2021/10/07 10:42:28;;;;;;;1.52;1.00;;;15.70;99.90;;;;;;5076491;28;20659;-55
2021/10/07 10:45:09;;;;;;;2.45;1.33;;;16.00;99.90;;;;;;5078082;28;20422;-58
2021/10/07 10:47:47;;;;;;;1.63;1.00;;;15.70;99.90;;;;;;5092436;28;20440;-57
2021/10/07 10:50:27;;;;;;;1.80;1.30;;;15.90;99.90;;;;;;5092261;28;21128;-55
2021/10/07 10:53:08;;;;;;;2.30;1.20;;;16.00;99.90;;;;;;5091888;28;20505;-56
2021/10/07 10:55:52;;;;;;;2.30;1.43;;;16.10;99.90;;;;;;5089793;28;20438;-57
2021/10/07 10:58:28;;;;;;;1.60;1.10;;;16.00;99.90;;;;;;5090746;28;20420;-55
2021/10/07 11:01:17;;;;;;;2.20;1.40;;;16.00;99.90;;;;;;5079646;28;20422;-54
2021/10/07 11:04:11;;;;;;;2.00;1.20;;;15.90;99.90;;;;;;5091661;28;20430;-54
2021/10/07 11:07:15;;;;;;;3.50;1.40;;;15.90;99.90;;;;;;5085986;28;20730;-56
2021/10/07 11:10:22;;;;;;;;;;;;;;;;;;;;;
2021/10/07 11:13:00;;;;;;;2.30;1.70;;;15.80;99.90;;;;;;5074931;28;20433;-55
2021/10/07 11:15:41;;;;;;;2.65;1.30;;;15.80;99.90;;;;;;5089606;28;20422;-55
2021/10/07 11:18:14;;;;;;;2.70;1.10;;;15.70;99.90;;;;;;5091843;28;20477;-55
2021/10/07 11:20:47;;;;;;;1.80;1.00;;;15.80;99.90;;;;;;5090849;28;20499;-55
2021/10/07 11:23:21;;;;;;;1.70;1.20;;;16.10;99.90;;;;;;5080518;28;20431;-56
2021/10/07 11:25:59;;;;;;;2.50;1.40;;;15.90;99.90;;;;;;5089377;28;20418;-57
2021/10/07 11:28:36;;;;;;;1.30;1.00;;;15.90;99.90;;;;;;5073263;28;20477;-56
2021/10/07 11:34:04;;;;;;;3.85;1.30;;;16.50;99.90;;;;;;5070399;28;20427;-57
2021/10/07 11:39:27;;;;;;;1.50;1.00;;;16.60;99.90;;;;;;5069193;28;20414;-57
2021/10/07 11:42:02;;;;;;;2.00;1.20;;;16.70;99.90;;;;;;5065820;28;20463;-54
2021/10/07 11:44:45;;;;;;;1.77;1.10;;;16.70;99.90;;;;;;5068683;28;20779;-56
2021/10/07 11:47:39;;;;;;;1.20;0.90;;;16.50;99.90;;;;;;5068354;28;20485;-55
2021/10/07 11:50:40;;;;;;;2.10;1.00;;;16.20;99.90;;;;;;5068643;28;20419;-55
2021/10/07 11:53:12;;;;;;;1.20;0.90;;;15.90;99.90;;;;;;5070037;28;20419;-55
2021/10/07 11:55:49;;;;;;;1.30;0.82;;;15.90;99.90;;;;;;5070630;28;20455;-56
2021/10/07 11:58:30;;;;;;;1.20;0.80;;;16.20;99.90;;;;;;5091446;28;20471;-56
2021/10/07 12:01:28;;;;;;;1.70;0.73;;;16.40;99.90;;;;;;5091928;28;20464;-57
2021/10/07 12:04:00;;;;;;;1.50;0.90;;;16.10;99.90;;;;;;5092212;28;20490;-54
2021/10/07 12:06:39;;;;;;;1.35;0.90;;;15.70;99.90;;;;;;5090394;28;20520;-58
2021/10/07 12:09:12;;;;;;;1.40;0.80;;;15.90;99.90;;;;;;5084400;28;20426;-57
2021/10/07 12:14:47;;;;;;;1.10;0.80;;;16.40;99.90;;;;;;5092004;28;20579;-56
2021/10/07 12:17:20;;;;;;;1.05;0.70;;;16.70;99.90;;;;;;5090454;28;20422;-54
2021/10/07 12:19:56;;;;;;;3.20;0.80;;;16.80;99.90;;;;;;5088602;28;20421;-56
2021/10/07 12:22:47;;;;;;;1.30;0.90;;;16.70;99.90;;;;;;5087742;28;20925;-57
2021/10/07 12:25:20;;;;;;;1.30;0.90;;;16.30;99.90;;;;;;5087379;28;20413;-56
2021/10/07 12:27:51;;;;;;;0.90;0.67;;;16.40;99.90;;;;;;5087783;28;20429;-55
2021/10/07 12:30:24;;;;;;;1.00;0.75;;;16.10;99.90;;;;;;5087563;28;20721;-56
2021/10/07 12:33:10;;;;;;;0.90;0.70;;;16.30;99.90;;;;;;5087042;28;20422;-57
2021/10/07 12:35:56;;;;;;;1.00;0.70;;;16.30;99.90;;;;;;5084721;28;20465;-55
2021/10/07 12:38:58;;;;;;;1.30;0.70;;;16.60;99.90;;;;;;5087646;28;20432;-54
2021/10/07 12:41:40;;;;;;;1.00;0.70;;;16.90;99.90;;;;;;5089911;28;20521;-53
2021/10/07 12:44:09;;;;;;;1.13;0.70;;;16.90;99.90;;;;;;5090833;28;20844;-54
2021/10/07 12:46:50;;;;;;;2.20;0.60;;;17.00;99.90;;;;;;5090891;28;20745;-52
2021/10/07 12:49:38;;;;;;;1.70;0.70;;;17.00;99.90;;;;;;5090511;28;20434;-54
2021/10/07 12:52:30;;;;;;;0.93;0.70;;;17.20;99.90;;;;;;5091808;28;20471;-54
2021/10/07 12:55:02;;;;;;;1.33;0.70;;;17.30;99.90;;;;;;5052891;28;21312;-58
2021/10/07 12:57:46;;;;;;;1.10;0.80;;;17.30;99.90;;;;;;5082681;28;20876;-58
2021/10/07 13:00:25;;;;;;;2.00;0.75;;;17.40;99.90;;;;;;5083266;28;20414;-57
2021/10/07 13:05:49;;;;;;;1.15;0.90;;;17.00;99.90;;;;;;5068971;28;20416;-55
2021/10/07 13:08:17;;;;;;;1.20;0.70;;;16.80;99.90;;;;;;5069845;28;20431;-58
2021/10/07 13:10:49;;;;;;;1.20;0.90;;;16.60;99.90;;;;;;5073506;28;20458;-56
2021/10/07 13:13:31;;;;;;;1.67;0.80;;;16.70;99.90;;;;;;5072195;28;20431;-58
2021/10/07 13:16:05;;;;;;;1.00;0.70;;;16.50;99.90;;;;;;5073836;28;20419;-55
2021/10/07 13:18:36;;;;;;;1.13;0.70;;;16.40;99.90;;;;;;5070525;28;20727;-54
2021/10/07 13:21:10;;;;;;;1.30;0.80;;;16.40;99.90;;;;;;5071441;28;20692;-49
2021/10/07 13:23:42;;;;;;;1.30;0.80;;;16.50;99.90;;;;;;5071428;28;20427;-53